createdAt,value
2022-11-13T00:02:37.735Z,11.17
2022-11-13T00:05:23.454Z,10.69
2022-11-13T00:08:09.159Z,11.13
2022-11-13T00:11:01.890Z,11.10
2022-11-13T00:13:49.000Z,10.65
2022-11-13T00:16:34.163Z,11.04
2022-11-13T00:19:19.784Z,10.53
2022-11-13T00:22:05.256Z,10.81
2022-11-13T00:24:50.694Z,10.80
2022-11-13T00:27:36.237Z,10.77
2022-11-13T00:30:21.993Z,10.82
2022-11-13T00:33:07.490Z,10.80
2022-11-13T00:35:53.164Z,10.75
2022-11-13T00:38:38.857Z,10.21
2022-11-13T00:41:24.947Z,10.74
2022-11-13T00:44:10.955Z,10.75
2022-11-13T00:46:56.419Z,10.86
2022-11-13T00:49:42.105Z,10.86
2022-11-13T00:52:27.695Z,10.38
2022-11-13T00:55:13.444Z,10.83
2022-11-13T00:57:58.752Z,10.52
2022-11-13T01:00:47.413Z,10.81
2022-11-13T01:03:33.379Z,10.30
2022-11-13T01:06:24.669Z,10.84
2022-11-13T01:09:10.203Z,10.72
2022-11-13T01:11:56.146Z,10.77
2022-11-13T01:14:41.556Z,10.70
2022-11-13T01:17:27.654Z,10.53
2022-11-13T01:20:13.447Z,10.52
2022-11-13T01:22:59.343Z,10.71
2022-11-13T01:25:45.236Z,10.47
2022-11-13T01:28:31.185Z,10.73
2022-11-13T01:31:19.721Z,10.69
2022-11-13T01:34:05.382Z,10.58
2022-11-13T01:36:50.753Z,10.61
2022-11-13T01:39:36.468Z,10.62
2022-11-13T01:42:21.821Z,10.54
2022-11-13T01:46:02.111Z,10.29
2022-11-13T01:49:11.239Z,10.68
2022-11-13T01:52:10.946Z,10.61
2022-11-13T01:55:19.094Z,9.84
2022-11-13T01:58:07.785Z,10.61
2022-11-13T02:00:53.678Z,10.38
2022-11-13T02:03:39.494Z,9.92
2022-11-13T02:06:28.536Z,10.39
2022-11-13T02:09:16.718Z,10.18
2022-11-13T02:12:02.738Z,10.29
2022-11-13T02:15:09.328Z,10.10
2022-11-13T02:18:00.716Z,9.56
2022-11-13T02:21:14.724Z,10.09
2022-11-13T02:24:37.838Z,10.17
2022-11-13T02:27:34.338Z,10.03
2022-11-13T02:30:32.196Z,9.27
2022-11-13T02:33:24.112Z,10.22
2022-11-13T02:36:12.311Z,10.10
2022-11-13T02:39:03.205Z,10.06
2022-11-13T02:41:48.678Z,10.14
2022-11-13T02:44:34.195Z,9.96
2022-11-13T02:47:20.056Z,10.00
2022-11-13T02:50:06.540Z,9.92
2022-11-13T02:52:52.459Z,9.69
2022-11-13T02:55:38.012Z,10.03
2022-11-13T02:58:23.688Z,10.06
2022-11-13T03:01:09.406Z,9.93
2022-11-13T03:03:57.891Z,9.99
2022-11-13T03:06:44.073Z,9.24
2022-11-13T03:09:29.541Z,9.29
2022-11-13T03:12:15.159Z,9.91
2022-11-13T03:15:01.455Z,9.81
2022-11-13T03:17:47.318Z,9.90
2022-11-13T03:20:33.081Z,9.90
2022-11-13T03:23:18.577Z,9.87
2022-11-13T03:26:06.965Z,9.84
2022-11-13T03:28:52.504Z,9.72
2022-11-13T03:31:38.255Z,9.52
2022-11-13T03:34:23.903Z,9.49
2022-11-13T03:37:09.643Z,9.69
2022-11-13T03:39:55.089Z,8.99
2022-11-13T03:42:40.821Z,9.53
2022-11-13T03:45:26.122Z,9.54
2022-11-13T03:48:11.736Z,9.42
2022-11-13T03:50:57.361Z,9.43
2022-11-13T03:53:42.643Z,9.40
2022-11-13T03:56:28.409Z,9.29
2022-11-13T03:59:13.981Z,9.24
2022-11-13T04:01:59.661Z,9.08
2022-11-13T04:04:45.275Z,9.11
2022-11-13T04:07:30.836Z,9.07
2022-11-13T04:10:16.591Z,9.01
2022-11-13T04:13:02.424Z,9.11
2022-11-13T04:15:48.024Z,8.98
2022-11-13T04:18:33.447Z,8.89
2022-11-13T04:21:19.013Z,8.77
2022-11-13T04:24:04.896Z,9.14
2022-11-13T04:26:50.793Z,8.69
2022-11-13T04:29:36.664Z,8.55
2022-11-13T04:32:22.479Z,8.87
2022-11-13T04:35:08.142Z,8.85
2022-11-13T04:37:54.335Z,8.79
2022-11-13T04:40:40.928Z,8.67
2022-11-13T04:43:26.681Z,8.79
2022-11-13T04:46:12.433Z,8.67
2022-11-13T04:48:58.305Z,8.81
2022-11-13T04:51:44.056Z,8.60
2022-11-13T04:54:29.738Z,8.38
2022-11-13T04:57:15.584Z,8.86
2022-11-13T05:00:01.248Z,8.77
2022-11-13T05:02:46.837Z,8.38
2022-11-13T05:05:32.352Z,8.42
2022-11-13T05:08:17.790Z,8.96
2022-11-13T05:11:04.215Z,9.12
2022-11-13T05:13:49.787Z,8.10
2022-11-13T05:16:36.738Z,8.93
2022-11-13T05:19:23.663Z,8.74
2022-11-13T05:22:09.891Z,9.18
2022-11-13T05:24:55.654Z,9.01
2022-11-13T05:27:41.466Z,9.16
2022-11-13T05:30:27.379Z,9.16
2022-11-13T05:33:12.808Z,9.11
2022-11-13T05:36:06.234Z,9.10
2022-11-13T05:38:52.675Z,9.00
2022-11-13T05:41:38.397Z,9.08
2022-11-13T05:44:24.039Z,9.21
2022-11-13T05:47:09.542Z,9.07
2022-11-13T05:49:54.944Z,9.21
2022-11-13T05:52:40.173Z,9.32
2022-11-13T05:55:25.969Z,9.19
2022-11-13T05:58:12.994Z,9.29
2022-11-13T06:01:19.286Z,9.35
2022-11-13T06:04:06.580Z,9.02
2022-11-13T06:06:52.652Z,9.17
2022-11-13T06:09:38.363Z,9.17
2022-11-13T06:12:24.129Z,8.09
2022-11-13T06:15:10.431Z,9.05
2022-11-13T06:17:56.078Z,8.85
2022-11-13T06:20:41.703Z,9.00
2022-11-13T06:23:27.132Z,8.45
2022-11-13T06:26:14.614Z,8.97
2022-11-13T06:29:01.573Z,8.69
2022-11-13T06:31:47.061Z,8.92
2022-11-13T06:34:32.609Z,8.90
2022-11-13T06:37:18.054Z,8.90
2022-11-13T06:40:03.932Z,8.96
2022-11-13T06:42:49.626Z,9.00
2022-11-13T06:45:35.772Z,8.82
2022-11-13T06:48:21.368Z,8.56
2022-11-13T06:51:11.478Z,8.90
2022-11-13T06:53:58.285Z,9.01
2022-11-13T06:56:45.688Z,9.03
2022-11-13T06:59:31.376Z,9.19
2022-11-13T07:02:16.771Z,9.12
2022-11-13T07:05:02.697Z,9.25
2022-11-13T07:07:48.541Z,9.20
2022-11-13T07:10:34.256Z,9.13
2022-11-13T07:13:19.633Z,9.17
2022-11-13T07:16:16.356Z,8.95
2022-11-13T07:19:02.536Z,9.21
2022-11-13T07:21:48.202Z,9.18
2022-11-13T07:24:33.667Z,9.10
2022-11-13T07:27:18.993Z,9.04
2022-11-13T07:30:05.381Z,9.11
2022-11-13T07:32:51.204Z,9.03
2022-11-13T07:35:36.628Z,9.10
2022-11-13T07:38:22.852Z,8.94
2022-11-13T07:41:08.495Z,8.91
2022-11-13T07:43:53.864Z,8.88
2022-11-13T07:46:39.489Z,9.26
2022-11-13T07:49:24.922Z,9.28
2022-11-13T07:52:10.463Z,9.31
2022-11-13T07:54:55.982Z,9.24
2022-11-13T07:57:41.140Z,9.17
2022-11-13T08:00:28.865Z,9.35
2022-11-13T08:03:15.488Z,9.46
2022-11-13T08:06:06.397Z,8.90
2022-11-13T08:08:51.940Z,9.25
2022-11-13T08:11:38.124Z,9.12
2022-11-13T08:14:25.953Z,9.10
2022-11-13T08:17:11.454Z,9.50
2022-11-13T08:19:56.910Z,8.88
2022-11-13T08:22:42.247Z,9.45
2022-11-13T08:25:29.707Z,9.70
2022-11-13T08:28:15.956Z,9.59
2022-11-13T08:31:02.789Z,9.84
2022-11-13T08:33:48.758Z,10.41
2022-11-13T08:36:34.384Z,10.67
2022-11-13T08:39:19.898Z,10.78
2022-11-13T08:42:05.889Z,10.87
2022-11-13T08:44:51.595Z,11.13
2022-11-13T08:47:37.995Z,10.92
2022-11-13T08:50:23.914Z,10.40
2022-11-13T08:53:09.392Z,10.79
2022-11-13T08:55:55.030Z,10.53
2022-11-13T08:58:40.634Z,10.38
2022-11-13T09:01:28.382Z,10.33
2022-11-13T09:04:13.806Z,10.49
2022-11-13T09:07:01.103Z,10.04
2022-11-13T09:09:46.798Z,9.87
2022-11-13T09:12:32.575Z,9.99
2022-11-13T09:15:21.744Z,9.92
2022-11-13T09:18:10.866Z,9.84
2022-11-13T09:21:00.926Z,9.28
2022-11-13T09:23:46.241Z,9.77
2022-11-13T09:26:31.763Z,9.89
2022-11-13T09:29:18.479Z,9.56
2022-11-13T09:32:04.239Z,10.07
2022-11-13T09:34:49.895Z,10.30
2022-11-13T09:37:35.653Z,10.24
2022-11-13T09:40:30.926Z,10.08
2022-11-13T09:43:43.307Z,10.15
2022-11-13T09:46:47.423Z,9.80
2022-11-13T09:49:38.084Z,9.78
2022-11-13T09:52:33.070Z,9.76
2022-11-13T09:55:22.845Z,9.63
2022-11-13T09:58:36.944Z,9.72
2022-11-13T10:01:41.691Z,9.85
2022-11-13T10:04:47.124Z,9.95
2022-11-13T10:07:48.790Z,9.60
2022-11-13T10:10:55.589Z,9.94
2022-11-13T10:14:11.129Z,10.04
2022-11-13T10:17:04.046Z,9.43
2022-11-13T10:20:12.647Z,9.88
2022-11-13T10:23:24.803Z,9.98
2022-11-13T10:26:35.974Z,10.65
2022-11-13T10:29:22.059Z,11.31
2022-11-13T10:32:23.347Z,11.20
2022-11-13T10:35:42.629Z,12.78
2022-11-13T10:38:43.566Z,12.30
2022-11-13T10:41:29.938Z,12.18
2022-11-13T10:44:20.420Z,12.01
2022-11-13T10:47:17.843Z,11.77
2022-11-13T10:50:12.896Z,11.69
2022-11-13T10:52:59.876Z,11.64
2022-11-13T10:55:47.528Z,11.49
2022-11-13T10:58:40.329Z,9.81
2022-11-13T11:01:27.565Z,11.32
2022-11-13T11:04:20.271Z,11.77
2022-11-13T11:07:20.367Z,11.94
2022-11-13T11:10:30.974Z,11.65
2022-11-13T11:13:23.087Z,11.98
2022-11-13T11:16:11.793Z,11.72
2022-11-13T11:19:09.506Z,11.33
2022-11-13T11:22:07.176Z,10.49
2022-11-13T11:25:02.039Z,10.50
2022-11-13T11:27:55.374Z,9.82
2022-11-13T11:30:49.975Z,9.58
2022-11-13T11:34:19.065Z,9.19
2022-11-13T11:37:23.765Z,9.15
2022-11-13T11:40:26.224Z,9.25
2022-11-13T11:43:12.185Z,9.24
2022-11-13T11:45:58.955Z,8.65
2022-11-13T11:48:44.551Z,8.98
2022-11-13T11:51:43.082Z,8.83
2022-11-13T11:54:28.727Z,9.04
2022-11-13T11:57:48.655Z,9.03
2022-11-13T12:00:43.606Z,8.88
2022-11-13T12:03:35.335Z,8.87
2022-11-13T12:06:39.590Z,8.85
2022-11-13T12:09:31.713Z,8.61
2022-11-13T12:12:45.463Z,8.87
2022-11-13T12:15:46.428Z,8.60
2022-11-13T12:19:05.774Z,8.64
2022-11-13T12:22:08.556Z,8.44
2022-11-13T12:25:09.707Z,6.63
2022-11-13T12:28:41.182Z,8.31
2022-11-13T12:31:57.857Z,8.22
2022-11-13T12:34:47.573Z,8.12
2022-11-13T12:37:38.749Z,8.08
2022-11-13T12:40:48.570Z,7.68
2022-11-13T12:44:17.369Z,7.86
2022-11-13T12:47:03.174Z,7.07
2022-11-13T12:49:59.249Z,7.75
2022-11-13T12:52:45.211Z,7.60
2022-11-13T12:55:36.170Z,7.57
2022-11-13T12:58:30.631Z,7.27
2022-11-13T13:01:21.657Z,7.55
2022-11-13T13:04:19.543Z,7.66
2022-11-13T13:07:29.282Z,7.65
2022-11-13T13:10:29.589Z,7.61
2022-11-13T13:13:19.501Z,7.60
2022-11-13T13:16:09.120Z,7.57
2022-11-13T13:19:08.344Z,7.56
2022-11-13T13:21:54.911Z,7.35
2022-11-13T13:24:40.680Z,7.28
2022-11-13T13:27:33.228Z,6.95
2022-11-13T13:30:21.791Z,7.34
2022-11-13T13:33:19.172Z,7.44
2022-11-13T13:36:30.832Z,7.37
2022-11-13T13:39:18.955Z,7.32
2022-11-13T13:42:16.952Z,7.31
2022-11-13T13:45:24.760Z,7.28
2022-11-13T13:48:13.637Z,7.13
2022-11-13T13:51:01.199Z,7.11
2022-11-13T13:53:48.394Z,7.01
2022-11-13T13:56:39.961Z,6.96
2022-11-13T13:59:37.221Z,7.07
2022-11-13T14:02:25.585Z,6.86
2022-11-13T14:05:35.473Z,6.93
2022-11-13T14:08:26.205Z,7.01
2022-11-13T14:11:31.104Z,6.58
2022-11-13T14:14:20.531Z,6.86
2022-11-13T14:17:07.058Z,7.03
2022-11-13T14:19:54.311Z,7.06
2022-11-13T14:22:42.820Z,6.85
2022-11-13T14:25:29.543Z,6.95
2022-11-13T14:28:27.649Z,7.12
2022-11-13T14:31:14.984Z,6.96
2022-11-13T14:34:08.436Z,7.01
2022-11-13T14:36:54.030Z,7.09
2022-11-13T14:39:39.660Z,7.17
2022-11-13T14:42:39.242Z,6.91
2022-11-13T14:45:30.038Z,6.66
2022-11-13T14:48:22.940Z,6.71
2022-11-13T14:51:32.060Z,7.18
2022-11-13T14:54:53.204Z,7.14
2022-11-13T14:57:47.730Z,6.49
2022-11-13T15:00:36.429Z,7.01
2022-11-13T15:03:22.293Z,6.92
2022-11-13T15:06:27.107Z,7.04
2022-11-13T15:09:16.551Z,6.95
2022-11-13T15:12:02.327Z,7.04
2022-11-13T15:14:47.821Z,7.07
2022-11-13T15:17:33.482Z,6.83
2022-11-13T15:20:24.857Z,7.10
2022-11-13T15:23:15.289Z,7.00
2022-11-13T15:26:00.468Z,7.03
2022-11-13T15:28:46.195Z,7.01
2022-11-13T15:31:41.341Z,7.10
2022-11-13T15:34:27.133Z,7.05
2022-11-13T15:37:14.557Z,6.97
2022-11-13T15:39:59.745Z,6.96
2022-11-13T15:42:45.560Z,6.94
2022-11-13T15:45:31.243Z,6.64
2022-11-13T15:48:17.710Z,6.87
2022-11-13T15:51:03.136Z,6.73
2022-11-13T15:54:01.792Z,6.38
2022-11-13T15:56:47.887Z,6.73
2022-11-13T15:59:33.502Z,6.68
2022-11-13T16:02:19.349Z,6.66
2022-11-13T16:05:05.464Z,6.80
2022-11-13T16:07:53.007Z,6.80
2022-11-13T16:10:38.932Z,6.36
2022-11-13T16:13:24.674Z,6.31
2022-11-13T16:16:18.682Z,6.84
2022-11-13T16:19:13.336Z,6.81
2022-11-13T16:21:58.983Z,6.71
2022-11-13T16:24:44.868Z,6.04
2022-11-13T16:27:34.089Z,4.84
2022-11-13T16:30:23.460Z,6.80
2022-11-13T16:33:12.768Z,6.89
2022-11-13T16:35:58.269Z,6.79
2022-11-13T16:38:43.408Z,6.88
2022-11-13T16:41:31.690Z,6.83
2022-11-13T16:44:17.599Z,6.85
2022-11-13T16:47:04.459Z,6.71
2022-11-13T16:49:50.670Z,6.44
2022-11-13T16:52:37.368Z,6.79
2022-11-13T16:55:23.632Z,6.79
2022-11-13T16:58:13.695Z,6.77
2022-11-13T17:01:00.340Z,6.74
2022-11-13T17:03:46.067Z,6.21
2022-11-13T17:06:35.662Z,6.76
2022-11-13T17:09:21.289Z,6.75
2022-11-13T17:12:11.042Z,6.63
2022-11-13T17:14:56.827Z,6.71
2022-11-13T17:17:42.283Z,6.64
2022-11-13T17:20:28.279Z,6.67
2022-11-13T17:23:16.289Z,6.64
2022-11-13T17:26:02.977Z,6.69
2022-11-13T17:28:48.744Z,6.62
2022-11-13T17:31:34.802Z,5.96
2022-11-13T17:34:20.086Z,6.65
2022-11-13T17:37:06.116Z,6.65
2022-11-13T17:39:51.790Z,6.52
2022-11-13T17:42:37.530Z,6.57
2022-11-13T17:45:23.066Z,6.06
2022-11-13T17:48:08.851Z,6.38
2022-11-13T17:50:59.188Z,6.40
2022-11-13T17:53:44.849Z,6.51
2022-11-13T17:56:30.744Z,5.87
2022-11-13T17:59:16.455Z,6.36
2022-11-13T18:02:02.917Z,6.44
2022-11-13T18:04:49.166Z,6.52
2022-11-13T18:07:34.806Z,6.48
2022-11-13T18:10:20.742Z,6.42
2022-11-13T18:13:07.047Z,4.48
2022-11-13T18:15:53.086Z,6.47
2022-11-13T18:18:39.737Z,6.01
2022-11-13T18:21:30.858Z,6.49
2022-11-13T18:24:19.227Z,6.08
2022-11-13T18:27:08.622Z,5.78
2022-11-13T18:29:54.204Z,6.39
2022-11-13T18:32:40.048Z,6.39
2022-11-13T18:35:25.426Z,5.55
2022-11-13T18:38:11.352Z,6.40
2022-11-13T18:41:04.073Z,6.38
2022-11-13T18:43:51.416Z,6.31
2022-11-13T18:46:37.260Z,5.74
2022-11-13T18:49:23.375Z,6.20
2022-11-13T18:52:09.271Z,6.20
2022-11-13T18:54:55.116Z,6.09
2022-11-13T18:57:40.907Z,5.99
2022-11-13T19:00:26.647Z,6.10
2022-11-13T19:03:12.235Z,6.06
2022-11-13T19:05:58.085Z,6.14
2022-11-13T19:08:44.409Z,6.10
2022-11-13T19:11:31.072Z,6.10
2022-11-13T19:14:18.454Z,6.22
2022-11-13T19:17:04.349Z,6.35
2022-11-13T19:19:50.470Z,6.19
2022-11-13T19:22:35.991Z,6.23
2022-11-13T19:25:22.913Z,6.23
2022-11-13T19:28:08.878Z,5.56
2022-11-13T19:30:57.236Z,6.21
2022-11-13T19:33:44.026Z,5.81
2022-11-13T19:36:31.531Z,5.91
2022-11-13T19:39:17.707Z,6.02
2022-11-13T19:42:03.488Z,6.09
2022-11-13T19:44:49.332Z,6.07
2022-11-13T19:47:36.279Z,6.12
2022-11-13T19:50:21.996Z,6.15
2022-11-13T19:53:07.906Z,6.10
2022-11-13T19:55:55.443Z,6.13
2022-11-13T19:58:44.260Z,6.00
2022-11-13T20:01:32.154Z,6.03
2022-11-13T20:04:18.210Z,5.95
2022-11-13T20:07:04.260Z,6.13
2022-11-13T20:09:50.049Z,6.07
2022-11-13T20:12:35.812Z,6.00
2022-11-13T20:15:21.489Z,5.67
2022-11-13T20:18:07.338Z,5.78
2022-11-13T20:20:54.962Z,5.85
2022-11-13T20:23:40.852Z,5.79
2022-11-13T20:26:27.681Z,5.75
2022-11-13T20:29:13.448Z,5.63
2022-11-13T20:32:02.150Z,5.54
2022-11-13T20:34:48.028Z,5.38
2022-11-13T20:37:34.402Z,5.28
2022-11-13T20:40:20.752Z,5.17
2022-11-13T20:43:06.472Z,5.04
2022-11-13T20:46:01.600Z,4.59
2022-11-13T20:48:48.234Z,4.70
2022-11-13T20:51:34.108Z,4.76
2022-11-13T20:54:20.053Z,4.69
2022-11-13T20:57:05.912Z,4.71
2022-11-13T20:59:51.561Z,4.71
2022-11-13T21:02:36.999Z,4.59
2022-11-13T21:05:22.465Z,4.71
2022-11-13T21:08:11.376Z,4.73
2022-11-13T21:11:02.717Z,4.43
2022-11-13T21:13:49.806Z,4.58
2022-11-13T21:16:35.089Z,4.06
2022-11-13T21:19:22.519Z,4.54
2022-11-13T21:22:08.225Z,4.55
2022-11-13T21:24:53.780Z,4.52
2022-11-13T21:27:39.854Z,4.00
2022-11-13T21:30:25.527Z,4.48
2022-11-13T21:33:11.179Z,3.65
2022-11-13T21:36:03.903Z,4.43
2022-11-13T21:38:50.263Z,4.02
2022-11-13T21:41:35.652Z,4.34
2022-11-13T21:44:21.048Z,4.45
2022-11-13T21:47:06.307Z,4.51
2022-11-13T21:49:52.098Z,3.80
2022-11-13T21:52:37.885Z,3.96
2022-11-13T21:55:23.681Z,4.51
2022-11-13T21:58:09.163Z,4.30
2022-11-13T22:00:54.525Z,4.51
2022-11-13T22:03:41.176Z,4.50
2022-11-13T22:06:30.225Z,3.39
2022-11-13T22:09:17.435Z,4.43
2022-11-13T22:12:03.150Z,4.35
2022-11-13T22:14:48.801Z,3.73
2022-11-13T22:17:34.208Z,4.27
2022-11-13T22:20:19.802Z,4.32
2022-11-13T22:23:05.965Z,4.24
2022-11-13T22:25:55.766Z,4.04
2022-11-13T22:28:45.188Z,4.19
2022-11-13T22:31:33.043Z,3.50
2022-11-13T22:34:18.489Z,4.32
2022-11-13T22:37:04.253Z,4.20
2022-11-13T22:39:49.744Z,4.19
2022-11-13T22:42:35.355Z,4.16
2022-11-13T22:45:24.483Z,4.15
2022-11-13T22:48:11.466Z,4.01
2022-11-13T22:51:01.841Z,3.91
2022-11-13T22:53:58.207Z,4.15
2022-11-13T22:56:44.423Z,4.08
2022-11-13T22:59:29.896Z,4.11
2022-11-13T23:02:15.501Z,3.94
2022-11-13T23:05:01.316Z,3.63
2022-11-13T23:07:46.993Z,4.16
2022-11-13T23:10:32.544Z,3.50
2022-11-13T23:13:18.108Z,3.43
2022-11-13T23:16:04.002Z,3.18
2022-11-13T23:18:50.347Z,3.09
2022-11-13T23:21:35.972Z,2.84
2022-11-13T23:24:21.413Z,2.10
2022-11-13T23:27:06.985Z,3.03
2022-11-13T23:29:53.906Z,3.05
2022-11-13T23:32:39.557Z,3.01
2022-11-13T23:35:25.373Z,2.46
2022-11-13T23:38:11.249Z,2.18
2022-11-13T23:40:58.358Z,2.81
2022-11-13T23:46:49.566Z,2.66
2022-11-13T23:49:35.271Z,2.92
2022-11-13T23:52:21.066Z,2.41
2022-11-13T23:55:07.104Z,2.99
2022-11-13T23:58:00.185Z,2.80
